createdAt,value
2022-10-16T00:00:01.804Z,82.70
2022-10-16T00:02:32.081Z,83.60
2022-10-16T00:05:02.931Z,81.50
2022-10-16T00:07:33.106Z,79.60
2022-10-16T00:10:03.430Z,81.90
2022-10-16T00:12:33.651Z,78.30
2022-10-16T00:15:03.864Z,79.20
2022-10-16T00:17:34.017Z,76.80
2022-10-16T00:20:04.259Z,75.90
2022-10-16T00:22:34.694Z,74.70
2022-10-16T00:25:05.084Z,74.90
2022-10-16T00:27:36.025Z,76.00
2022-10-16T00:30:06.982Z,76.10
2022-10-16T00:32:37.234Z,77.80
2022-10-16T00:35:07.929Z,77.70
2022-10-16T00:37:38.117Z,78.50
2022-10-16T00:40:08.806Z,79.00
2022-10-16T00:42:38.971Z,79.40
2022-10-16T00:45:10.293Z,80.50
2022-10-16T00:47:51.644Z,79.80
2022-10-16T00:50:35.636Z,79.30
2022-10-16T00:53:06.483Z,79.10
2022-10-16T00:55:38.884Z,80.80
2022-10-16T00:58:12.561Z,80.30
2022-10-16T01:00:42.900Z,81.40
2022-10-16T01:03:37.582Z,81.80
2022-10-16T01:06:29.403Z,79.10
2022-10-16T01:09:15.352Z,80.40
2022-10-16T01:11:59.332Z,79.70
2022-10-16T01:15:00.566Z,79.60
2022-10-16T01:18:05.730Z,78.80
2022-10-16T01:20:57.020Z,79.90
2022-10-16T01:23:54.924Z,79.20
2022-10-16T01:26:40.092Z,78.20
2022-10-16T01:29:48.296Z,79.40
2022-10-16T01:32:34.348Z,79.20
2022-10-16T01:35:18.518Z,78.20
2022-10-16T01:38:12.832Z,79.40
2022-10-16T01:40:47.685Z,79.20
2022-10-16T01:43:40.644Z,78.00
2022-10-16T01:46:14.021Z,77.20
2022-10-16T01:48:45.463Z,77.50
2022-10-16T01:51:21.565Z,78.20
2022-10-16T01:53:56.818Z,77.30
2022-10-16T01:56:28.843Z,76.60
2022-10-16T01:59:11.692Z,78.80
2022-10-16T02:01:46.240Z,78.70
2022-10-16T02:04:38.850Z,78.10
2022-10-16T02:07:10.453Z,78.90
2022-10-16T02:09:41.694Z,77.80
2022-10-16T02:12:36.281Z,77.90
2022-10-16T02:15:08.439Z,76.80
2022-10-16T02:17:39.082Z,75.50
2022-10-16T02:20:10.967Z,74.50
2022-10-16T02:22:49.456Z,75.00
2022-10-16T02:25:33.523Z,73.40
2022-10-16T02:28:30.796Z,73.20
2022-10-16T02:31:06.673Z,71.20
2022-10-16T02:33:38.940Z,71.10
2022-10-16T02:36:09.777Z,70.60
2022-10-16T02:38:41.066Z,70.60
2022-10-16T02:41:12.034Z,69.40
2022-10-16T02:43:42.225Z,65.50
2022-10-16T02:46:12.480Z,68.70
2022-10-16T02:48:42.655Z,68.60
2022-10-16T02:51:13.224Z,69.10
2022-10-16T02:53:44.636Z,68.20
2022-10-16T02:56:15.365Z,70.30
2022-10-16T02:58:45.967Z,68.10
2022-10-16T03:01:17.745Z,67.50
2022-10-16T03:03:48.215Z,65.00
2022-10-16T03:06:18.451Z,68.20
2022-10-16T03:08:48.650Z,68.50
2022-10-16T03:11:19.304Z,68.00
2022-10-16T03:13:49.502Z,69.60
2022-10-16T03:16:20.119Z,69.00
2022-10-16T03:18:53.852Z,67.40
2022-10-16T03:21:24.463Z,68.20
2022-10-16T03:23:54.704Z,69.30
2022-10-16T03:26:25.427Z,69.70
2022-10-16T03:28:55.647Z,69.70
2022-10-16T03:31:26.034Z,69.00
2022-10-16T03:33:56.175Z,68.80
2022-10-16T03:36:26.536Z,68.60
2022-10-16T03:38:56.778Z,68.80
2022-10-16T03:41:26.999Z,71.30
2022-10-16T03:43:57.108Z,70.70
2022-10-16T03:46:27.336Z,70.30
2022-10-16T03:48:58.591Z,68.90
2022-10-16T03:51:30.122Z,68.90
2022-10-16T03:54:00.344Z,69.50
2022-10-16T03:56:30.617Z,67.30
2022-10-16T03:59:00.737Z,68.40
2022-10-16T04:01:30.904Z,68.30
2022-10-16T04:04:01.578Z,69.10
2022-10-16T04:06:32.990Z,68.20
2022-10-16T04:09:05.289Z,68.40
2022-10-16T04:11:35.480Z,68.30
2022-10-16T04:14:05.880Z,68.30
2022-10-16T04:16:36.309Z,68.90
2022-10-16T04:19:06.825Z,69.10
2022-10-16T04:21:39.135Z,69.60
2022-10-16T04:24:09.663Z,69.70
2022-10-16T04:26:40.148Z,70.40
2022-10-16T04:29:10.648Z,71.40
2022-10-16T04:31:41.163Z,69.90
2022-10-16T04:34:11.870Z,70.90
2022-10-16T04:36:42.151Z,71.00
2022-10-16T04:39:13.662Z,69.90
2022-10-16T04:41:43.931Z,70.80
2022-10-16T04:44:14.541Z,70.60
2022-10-16T04:46:44.786Z,70.80
2022-10-16T04:49:15.010Z,70.20
2022-10-16T04:51:45.335Z,71.00
2022-10-16T04:54:16.022Z,70.40
2022-10-16T04:56:50.252Z,70.40
2022-10-16T04:59:21.479Z,71.00
2022-10-16T05:01:52.620Z,69.50
2022-10-16T05:04:23.172Z,70.60
2022-10-16T05:06:53.370Z,70.20
2022-10-16T05:09:24.682Z,70.00
2022-10-16T05:11:55.327Z,70.30
2022-10-16T05:14:25.504Z,70.40
2022-10-16T05:16:55.677Z,70.70
2022-10-16T05:19:27.970Z,70.20
2022-10-16T05:21:59.883Z,69.60
2022-10-16T05:24:31.217Z,70.10
2022-10-16T05:27:01.477Z,70.50
2022-10-16T05:29:31.636Z,70.80
2022-10-16T05:32:01.848Z,71.70
2022-10-16T05:34:31.981Z,71.10
2022-10-16T05:37:02.119Z,71.10
2022-10-16T05:39:32.232Z,71.00
2022-10-16T05:42:02.616Z,70.60
2022-10-16T05:47:02.905Z,70.20
2022-10-16T05:49:33.679Z,70.70
2022-10-16T05:52:05.879Z,71.00
2022-10-16T05:54:36.167Z,70.70
2022-10-16T05:57:08.936Z,70.60
2022-10-16T05:59:39.578Z,71.50
2022-10-16T06:02:12.337Z,71.00
2022-10-16T06:04:42.900Z,72.10
2022-10-16T06:07:13.474Z,72.10
2022-10-16T06:09:45.099Z,72.10
2022-10-16T06:12:15.543Z,71.50
2022-10-16T06:14:46.807Z,72.80
2022-10-16T06:17:20.052Z,72.80
2022-10-16T06:19:50.220Z,73.30
2022-10-16T06:22:20.341Z,72.90
2022-10-16T06:24:51.870Z,74.20
2022-10-16T06:27:23.424Z,74.40
2022-10-16T06:29:54.065Z,73.80
2022-10-16T06:32:24.563Z,73.10
2022-10-16T06:34:54.680Z,74.10
2022-10-16T06:37:25.978Z,75.50
2022-10-16T06:39:56.418Z,74.40
2022-10-16T06:42:26.857Z,73.40
2022-10-16T06:44:57.226Z,72.70
2022-10-16T06:47:27.709Z,73.80
2022-10-16T06:49:57.969Z,75.00
2022-10-16T06:52:30.690Z,73.60
2022-10-16T06:55:00.895Z,73.70
2022-10-16T06:57:31.326Z,74.70
2022-10-16T07:00:01.449Z,74.80
2022-10-16T07:02:31.769Z,75.20
2022-10-16T07:05:01.921Z,75.00
2022-10-16T07:07:32.463Z,75.10
2022-10-16T07:10:03.101Z,74.70
2022-10-16T07:12:34.406Z,75.20
2022-10-16T07:15:04.621Z,75.50
2022-10-16T07:17:35.705Z,75.30
2022-10-16T07:20:06.186Z,76.20
2022-10-16T07:22:36.364Z,76.00
2022-10-16T07:25:06.801Z,76.30
2022-10-16T07:30:09.267Z,77.00
2022-10-16T07:32:39.979Z,77.20
2022-10-16T07:35:11.426Z,76.60
2022-10-16T07:37:41.960Z,77.60
2022-10-16T07:40:13.336Z,77.90
2022-10-16T07:42:43.779Z,77.90
2022-10-16T07:45:15.046Z,78.20
2022-10-16T07:47:45.909Z,78.70
2022-10-16T07:50:16.154Z,77.80
2022-10-16T07:52:47.149Z,77.60
2022-10-16T07:55:18.987Z,77.60
2022-10-16T07:57:49.495Z,78.10
2022-10-16T08:00:20.232Z,78.10
2022-10-16T08:02:51.890Z,78.70
2022-10-16T08:05:22.640Z,78.80
2022-10-16T08:07:54.563Z,78.70
2022-10-16T08:10:27.375Z,79.00
2022-10-16T08:12:57.896Z,78.80
2022-10-16T08:15:28.304Z,78.70
2022-10-16T08:18:08.117Z,79.20
2022-10-16T08:20:38.257Z,79.50
2022-10-16T08:23:09.927Z,79.40
2022-10-16T08:25:41.367Z,79.60
2022-10-16T08:28:14.552Z,79.40
2022-10-16T08:30:46.113Z,78.90
2022-10-16T08:33:17.142Z,79.10
2022-10-16T08:35:53.910Z,78.70
2022-10-16T08:38:24.989Z,79.20
2022-10-16T08:40:59.880Z,79.50
2022-10-16T08:43:46.204Z,79.30
2022-10-16T08:46:37.909Z,79.30
2022-10-16T08:49:16.604Z,79.10
2022-10-16T08:51:49.155Z,79.60
2022-10-16T08:54:39.555Z,79.40
2022-10-16T08:57:24.395Z,79.40
2022-10-16T08:59:57.905Z,79.60
2022-10-16T09:02:44.239Z,80.60
2022-10-16T09:05:52.362Z,80.60
2022-10-16T09:08:49.279Z,79.60
2022-10-16T09:11:37.559Z,79.40
2022-10-16T09:14:22.736Z,79.50
2022-10-16T09:17:17.207Z,79.70
2022-10-16T09:19:54.857Z,80.30
2022-10-16T09:22:30.746Z,80.00
2022-10-16T09:25:04.582Z,80.30
2022-10-16T09:27:35.337Z,80.50
2022-10-16T09:30:14.119Z,81.00
2022-10-16T09:32:47.423Z,79.60
2022-10-16T09:35:22.776Z,80.40
2022-10-16T09:37:56.754Z,80.30
2022-10-16T09:40:31.704Z,80.60
2022-10-16T09:43:31.179Z,80.50
2022-10-16T09:46:06.794Z,80.40
2022-10-16T09:48:46.984Z,81.10
2022-10-16T09:51:25.304Z,80.90
2022-10-16T09:54:03.439Z,81.40
2022-10-16T09:56:39.024Z,81.20
2022-10-16T09:59:23.999Z,81.70
2022-10-16T10:01:57.100Z,81.80
2022-10-16T10:04:31.143Z,81.70
2022-10-16T10:07:02.599Z,82.20
2022-10-16T10:09:43.454Z,84.90
2022-10-16T10:12:28.683Z,86.90
2022-10-16T10:15:09.977Z,87.90
2022-10-16T10:17:50.475Z,88.10
2022-10-16T10:20:34.459Z,89.20
2022-10-16T10:23:23.762Z,90.00
2022-10-16T10:26:24.846Z,90.30
2022-10-16T10:29:05.364Z,90.50
2022-10-16T10:31:56.253Z,90.70
2022-10-16T10:34:56.735Z,91.00
2022-10-16T10:37:53.827Z,91.10
2022-10-16T10:40:46.918Z,91.10
2022-10-16T10:43:35.229Z,91.30
2022-10-16T10:46:12.052Z,91.20
2022-10-16T10:49:03.219Z,91.20
2022-10-16T10:51:49.170Z,91.20
2022-10-16T10:54:24.354Z,91.20
2022-10-16T10:57:06.395Z,91.20
2022-10-16T10:59:42.860Z,91.40
2022-10-16T11:02:19.365Z,91.50
2022-10-16T11:05:01.625Z,91.50
2022-10-16T11:07:45.068Z,91.60
2022-10-16T11:10:34.017Z,91.20
2022-10-16T11:13:29.473Z,91.10
2022-10-16T11:16:05.970Z,90.90
2022-10-16T11:18:49.139Z,91.10
2022-10-16T11:21:24.313Z,91.20
2022-10-16T11:24:13.185Z,91.20
2022-10-16T11:26:47.190Z,90.90
2022-10-16T11:29:32.650Z,90.90
2022-10-16T11:32:44.638Z,90.90
2022-10-16T11:35:33.033Z,90.90
2022-10-16T11:38:07.358Z,90.80
2022-10-16T11:40:43.650Z,91.00
2022-10-16T11:43:32.358Z,91.10
2022-10-16T11:46:11.615Z,91.20
2022-10-16T11:49:12.652Z,91.30
2022-10-16T11:52:03.476Z,91.30
2022-10-16T11:54:44.755Z,91.20
2022-10-16T11:57:27.288Z,91.10
2022-10-16T12:00:23.497Z,91.40
2022-10-16T12:02:56.972Z,91.20
2022-10-16T12:05:37.308Z,91.20
2022-10-16T12:08:19.617Z,91.00
2022-10-16T12:10:53.087Z,91.00
2022-10-16T12:13:35.863Z,90.70
2022-10-16T12:16:27.160Z,91.00
2022-10-16T12:19:18.940Z,90.40
2022-10-16T12:21:49.884Z,90.60
2022-10-16T12:24:37.343Z,90.40
2022-10-16T12:27:10.410Z,90.80
2022-10-16T12:29:45.287Z,91.20
2022-10-16T12:32:48.760Z,90.70
2022-10-16T12:35:50.154Z,91.00
2022-10-16T12:38:40.098Z,91.10
2022-10-16T12:41:13.325Z,91.40
2022-10-16T12:43:46.684Z,91.10
2022-10-16T12:46:17.553Z,91.10
2022-10-16T12:49:08.434Z,91.20
2022-10-16T12:51:40.614Z,90.90
2022-10-16T12:54:41.332Z,91.20
2022-10-16T12:57:26.693Z,91.00
2022-10-16T13:00:02.970Z,91.00
2022-10-16T13:02:45.634Z,91.10
2022-10-16T13:05:43.815Z,91.10
2022-10-16T13:08:38.138Z,91.00
2022-10-16T13:11:36.938Z,91.00
2022-10-16T13:14:30.395Z,91.00
2022-10-16T13:17:30.462Z,90.80
2022-10-16T13:20:22.577Z,90.90
2022-10-16T13:23:10.820Z,91.10
2022-10-16T13:26:00.846Z,91.10
2022-10-16T13:28:38.431Z,91.10
2022-10-16T13:31:14.486Z,90.50
2022-10-16T13:33:51.051Z,91.00
2022-10-16T13:36:30.472Z,91.10
2022-10-16T13:39:25.204Z,90.80
2022-10-16T13:42:17.342Z,91.20
2022-10-16T13:44:53.331Z,90.80
2022-10-16T13:47:30.832Z,91.30
2022-10-16T13:50:13.625Z,90.90
2022-10-16T13:52:44.205Z,91.20
2022-10-16T13:55:22.285Z,90.80
2022-10-16T13:57:52.489Z,90.90
2022-10-16T14:00:33.348Z,91.50
2022-10-16T14:03:16.523Z,91.50
2022-10-16T14:06:07.682Z,91.30
2022-10-16T14:08:38.022Z,91.00
2022-10-16T14:11:08.762Z,91.40
2022-10-16T14:13:47.596Z,91.60
2022-10-16T14:16:32.125Z,91.40
2022-10-16T14:19:12.758Z,91.40
2022-10-16T14:21:44.529Z,91.30
2022-10-16T14:24:16.684Z,91.20
2022-10-16T14:26:51.160Z,91.50
2022-10-16T14:29:23.964Z,91.70
2022-10-16T14:32:25.276Z,91.80
2022-10-16T14:34:59.079Z,91.90
2022-10-16T14:37:32.820Z,92.20
2022-10-16T14:40:05.244Z,92.10
2022-10-16T14:42:35.385Z,92.50
2022-10-16T14:45:14.427Z,92.40
2022-10-16T14:48:02.398Z,92.60
2022-10-16T14:50:33.270Z,92.90
2022-10-16T14:53:03.856Z,92.80
2022-10-16T14:55:34.138Z,92.60
2022-10-16T14:58:05.090Z,92.90
2022-10-16T15:00:35.334Z,93.20
2022-10-16T15:03:06.142Z,93.30
2022-10-16T15:05:36.412Z,93.30
2022-10-16T15:08:09.492Z,93.30
2022-10-16T15:10:46.336Z,93.30
2022-10-16T15:13:17.580Z,93.30
2022-10-16T15:15:49.448Z,93.30
2022-10-16T15:18:23.380Z,93.10
2022-10-16T15:20:54.663Z,93.00
2022-10-16T15:25:59.555Z,93.00
2022-10-16T15:28:30.628Z,93.00
2022-10-16T15:31:01.416Z,93.00
2022-10-16T15:33:39.770Z,92.80
2022-10-16T15:36:10.950Z,92.90
2022-10-16T15:38:41.169Z,93.00
2022-10-16T15:41:11.432Z,93.10
2022-10-16T15:43:41.614Z,93.30
2022-10-16T15:46:17.086Z,93.30
2022-10-16T15:48:47.483Z,93.40
2022-10-16T15:51:17.672Z,93.50
2022-10-16T15:53:49.048Z,93.40
2022-10-16T15:56:19.404Z,93.50
2022-10-16T15:58:49.648Z,93.30
2022-10-16T16:01:19.967Z,93.30
2022-10-16T16:03:50.189Z,93.20
2022-10-16T16:06:20.351Z,93.10
2022-10-16T16:08:50.624Z,92.90
2022-10-16T16:11:22.581Z,92.80
2022-10-16T16:13:52.807Z,92.80
2022-10-16T16:16:24.571Z,92.60
2022-10-16T16:18:57.284Z,92.70
2022-10-16T16:21:27.444Z,92.50
2022-10-16T16:23:57.940Z,92.60
2022-10-16T16:26:40.198Z,92.40
2022-10-16T16:29:12.138Z,92.60
2022-10-16T16:31:42.727Z,92.50
2022-10-16T16:34:14.720Z,92.20
2022-10-16T16:36:46.004Z,92.10
2022-10-16T16:39:17.755Z,92.00
2022-10-16T16:41:51.215Z,92.20
2022-10-16T16:44:22.277Z,92.00
2022-10-16T16:46:52.802Z,91.90
2022-10-16T16:49:22.969Z,91.90
2022-10-16T16:51:54.047Z,92.10
2022-10-16T16:54:24.822Z,91.80
2022-10-16T16:56:55.472Z,91.80
2022-10-16T16:59:25.949Z,91.60
2022-10-16T17:01:57.301Z,92.00
2022-10-16T17:04:28.119Z,91.70
2022-10-16T17:06:59.176Z,91.60
2022-10-16T17:09:29.479Z,91.70
2022-10-16T17:12:01.795Z,91.50
2022-10-16T17:14:33.330Z,91.50
2022-10-16T17:17:03.953Z,91.60
2022-10-16T17:19:34.557Z,91.50
2022-10-16T17:22:05.141Z,91.70
2022-10-16T17:24:35.996Z,91.50
2022-10-16T17:27:06.553Z,91.20
2022-10-16T17:29:37.654Z,91.20
2022-10-16T17:32:08.538Z,91.20
2022-10-16T17:34:39.092Z,91.30
2022-10-16T17:37:14.278Z,91.10
2022-10-16T17:39:47.958Z,90.60
2022-10-16T17:42:18.874Z,91.60
2022-10-16T17:44:49.600Z,91.70
2022-10-16T17:47:21.070Z,91.20
2022-10-16T17:49:51.986Z,91.50
2022-10-16T17:52:22.654Z,92.20
2022-10-16T17:54:58.902Z,91.60
2022-10-16T17:57:30.831Z,91.50
2022-10-16T18:00:02.920Z,91.60
2022-10-16T18:02:34.514Z,92.10
2022-10-16T18:05:08.199Z,92.10
2022-10-16T18:07:38.540Z,92.40
2022-10-16T18:10:12.174Z,92.20
2022-10-16T18:12:43.082Z,92.30
2022-10-16T18:15:13.772Z,92.60
2022-10-16T18:17:44.058Z,92.30
2022-10-16T18:20:14.831Z,92.60
2022-10-16T18:22:45.231Z,93.00
2022-10-16T18:25:15.477Z,92.80
2022-10-16T18:27:45.744Z,92.60
2022-10-16T18:30:16.147Z,92.90
2022-10-16T18:32:46.437Z,92.90
2022-10-16T18:35:17.232Z,93.20
2022-10-16T18:37:50.869Z,93.50
2022-10-16T18:40:21.654Z,93.60
2022-10-16T18:42:52.531Z,93.70
2022-10-16T18:45:24.169Z,93.50
2022-10-16T18:47:54.708Z,93.50
2022-10-16T18:50:25.561Z,93.90
2022-10-16T18:52:56.155Z,93.70
2022-10-16T18:55:30.524Z,94.00
2022-10-16T18:58:01.194Z,93.90
2022-10-16T19:00:31.392Z,94.20
2022-10-16T19:03:01.587Z,94.40
2022-10-16T19:05:32.051Z,94.40
2022-10-16T19:08:02.227Z,94.50
2022-10-16T19:10:33.158Z,94.10
2022-10-16T19:13:03.680Z,94.00
2022-10-16T19:15:38.114Z,94.10
2022-10-16T19:18:08.355Z,93.90
2022-10-16T19:20:38.603Z,94.00
2022-10-16T19:23:09.479Z,93.80
2022-10-16T19:25:42.340Z,94.00
2022-10-16T19:28:12.919Z,93.80
2022-10-16T19:30:47.728Z,93.80
2022-10-16T19:33:18.136Z,93.60
2022-10-16T19:35:48.514Z,93.70
2022-10-16T19:38:19.679Z,93.60
2022-10-16T19:40:49.951Z,93.80
2022-10-16T19:43:21.064Z,93.80
2022-10-16T19:45:51.227Z,93.80
2022-10-16T19:48:21.390Z,93.90
2022-10-16T19:50:51.686Z,94.30
2022-10-16T19:53:21.981Z,94.10
2022-10-16T19:55:52.136Z,94.10
2022-10-16T19:58:22.868Z,94.30
2022-10-16T20:00:56.898Z,94.40
2022-10-16T20:03:28.485Z,94.60
2022-10-16T20:06:02.155Z,94.30
2022-10-16T20:08:32.650Z,94.60
2022-10-16T20:11:03.285Z,94.80
2022-10-16T20:13:38.437Z,95.10
2022-10-16T20:16:12.555Z,94.90
2022-10-16T20:18:43.231Z,94.70
2022-10-16T20:21:15.174Z,94.40
2022-10-16T20:23:46.892Z,94.20
2022-10-16T20:26:18.522Z,94.20
2022-10-16T20:28:49.354Z,93.90
2022-10-16T20:31:24.724Z,93.70
2022-10-16T20:33:57.703Z,93.10
2022-10-16T20:36:33.560Z,93.00
2022-10-16T20:39:04.928Z,93.20
2022-10-16T20:41:35.742Z,93.40
2022-10-16T20:44:06.893Z,93.10
2022-10-16T20:46:37.601Z,93.70
2022-10-16T20:49:11.405Z,92.80
2022-10-16T20:51:52.107Z,92.00
2022-10-16T20:54:22.364Z,91.30
2022-10-16T20:56:55.773Z,91.40
2022-10-16T20:59:26.374Z,91.90
2022-10-16T21:01:56.899Z,90.50
2022-10-16T21:04:27.214Z,90.40
2022-10-16T21:06:57.512Z,90.40
2022-10-16T21:09:27.639Z,90.10
2022-10-16T21:11:57.868Z,88.90
2022-10-16T21:14:28.051Z,87.90
2022-10-16T21:16:58.319Z,87.60
2022-10-16T21:19:31.853Z,87.80
2022-10-16T21:22:03.417Z,86.60
2022-10-16T21:24:33.749Z,85.90
2022-10-16T21:27:03.922Z,85.60
2022-10-16T21:29:34.464Z,84.50
2022-10-16T21:32:04.728Z,84.40
2022-10-16T21:34:36.679Z,85.40
2022-10-16T21:37:07.270Z,85.00
2022-10-16T21:39:37.496Z,84.40
2022-10-16T21:42:07.685Z,84.70
2022-10-16T21:44:38.256Z,84.10
2022-10-16T21:47:08.504Z,82.40
2022-10-16T21:49:38.696Z,84.10
2022-10-16T21:52:09.329Z,85.80
2022-10-16T21:54:39.535Z,85.80
2022-10-16T21:57:09.754Z,86.40
2022-10-16T21:59:40.391Z,85.30
2022-10-16T22:02:10.683Z,84.60
2022-10-16T22:04:40.871Z,86.00
2022-10-16T22:07:12.732Z,86.80
2022-10-16T22:09:42.975Z,86.20
2022-10-16T22:12:13.185Z,85.80
2022-10-16T22:14:43.367Z,84.70
2022-10-16T22:17:13.741Z,83.90
2022-10-16T22:19:43.976Z,83.20
2022-10-16T22:22:14.131Z,82.30
2022-10-16T22:24:45.639Z,82.40
2022-10-16T22:27:16.136Z,82.40
2022-10-16T22:29:46.423Z,83.70
2022-10-16T22:32:16.564Z,82.00
2022-10-16T22:34:46.809Z,82.00
2022-10-16T22:37:17.143Z,82.40
2022-10-16T22:39:47.300Z,82.40
2022-10-16T22:42:17.432Z,82.60
2022-10-16T22:44:49.088Z,80.90
2022-10-16T22:47:19.235Z,81.20
2022-10-16T22:49:49.412Z,80.80
2022-10-16T22:52:19.844Z,82.40
2022-10-16T22:54:50.711Z,81.60
2022-10-16T22:57:20.988Z,81.00
2022-10-16T22:59:51.310Z,81.40
2022-10-16T23:02:21.963Z,80.60
2022-10-16T23:04:52.164Z,80.30
2022-10-16T23:07:22.367Z,80.90
2022-10-16T23:09:53.166Z,80.10
2022-10-16T23:12:27.868Z,80.90
2022-10-16T23:14:58.407Z,80.80
2022-10-16T23:17:28.850Z,80.30
2022-10-16T23:19:59.397Z,79.50
2022-10-16T23:22:29.856Z,78.60
2022-10-16T23:25:00.559Z,79.00
2022-10-16T23:27:32.077Z,80.20
2022-10-16T23:30:02.315Z,80.10
2022-10-16T23:32:32.624Z,80.70
2022-10-16T23:35:03.236Z,81.40
2022-10-16T23:37:33.700Z,81.10
2022-10-16T23:40:04.351Z,81.10
2022-10-16T23:42:35.651Z,80.10
2022-10-16T23:45:09.506Z,81.00
2022-10-16T23:47:43.514Z,80.00
2022-10-16T23:50:14.134Z,80.50
2022-10-16T23:52:45.020Z,81.00
2022-10-16T23:55:15.549Z,80.70
2022-10-16T23:57:47.015Z,80.80
